createdAt,value
2023-04-10T00:02:14.645Z,2.87
2023-04-10T00:04:42.637Z,2.87
2023-04-10T00:07:10.892Z,2.50
2023-04-10T00:09:38.670Z,2.67
2023-04-10T00:12:07.926Z,2.67
2023-04-10T00:14:35.787Z,2.80
2023-04-10T00:17:03.578Z,2.90
2023-04-10T00:19:31.533Z,2.50
2023-04-10T00:21:59.244Z,2.90
2023-04-10T00:24:27.176Z,2.50
2023-04-10T00:26:54.993Z,2.63
2023-04-10T00:29:24.273Z,2.60
2023-04-10T00:31:52.072Z,2.60
2023-04-10T00:34:19.941Z,3.17
2023-04-10T00:36:48.186Z,2.57
2023-04-10T00:39:18.699Z,2.97
2023-04-10T00:41:46.938Z,3.03
2023-04-10T00:44:15.974Z,2.93
2023-04-10T00:46:45.249Z,2.63
2023-04-10T00:49:13.274Z,2.60
2023-04-10T00:51:41.776Z,2.60
2023-04-10T00:54:11.269Z,3.00
2023-04-10T00:56:39.081Z,3.23
2023-04-10T00:59:08.158Z,2.80
2023-04-10T01:01:36.144Z,3.40
2023-04-10T01:04:05.917Z,3.00
2023-04-10T01:06:46.197Z,3.20
2023-04-10T01:09:19.380Z,3.00
2023-04-10T01:11:53.213Z,3.07
2023-04-10T01:14:27.822Z,3.07
2023-04-10T01:16:59.487Z,2.93
2023-04-10T01:19:40.233Z,3.17
2023-04-10T01:22:11.946Z,2.87
2023-04-10T01:24:51.759Z,3.00
2023-04-10T01:27:32.332Z,2.83
2023-04-10T01:30:03.085Z,2.30
2023-04-10T01:32:31.865Z,2.70
2023-04-10T01:35:01.079Z,3.30
2023-04-10T01:37:31.520Z,2.90
2023-04-10T01:40:01.486Z,2.83
2023-04-10T01:42:32.371Z,2.80
2023-04-10T01:45:02.075Z,2.80
2023-04-10T01:47:30.235Z,3.00
2023-04-10T01:49:58.825Z,2.63
2023-04-10T01:52:26.544Z,2.57
2023-04-10T01:54:54.851Z,2.60
2023-04-10T01:57:22.826Z,2.63
2023-04-10T01:59:50.830Z,2.43
2023-04-10T02:02:19.972Z,2.50
2023-04-10T02:04:51.741Z,2.53
2023-04-10T02:07:26.096Z,2.90
2023-04-10T02:09:58.792Z,2.77
2023-04-10T02:12:31.045Z,2.90
2023-04-10T02:15:01.285Z,2.47
2023-04-10T02:17:31.532Z,2.63
2023-04-10T02:20:00.000Z,2.50
2023-04-10T02:22:27.921Z,2.50
2023-04-10T02:24:55.940Z,2.50
2023-04-10T02:27:31.051Z,2.47
2023-04-10T02:29:58.998Z,2.53
2023-04-10T02:32:27.272Z,2.43
2023-04-10T02:34:57.123Z,2.43
2023-04-10T02:37:24.890Z,2.63
2023-04-10T02:39:53.102Z,2.40
2023-04-10T02:42:20.892Z,2.30
2023-04-10T02:44:49.504Z,2.50
2023-04-10T02:47:18.587Z,2.40
2023-04-10T02:49:48.315Z,2.40
2023-04-10T02:52:17.879Z,2.43
2023-04-10T02:54:45.636Z,2.50
2023-04-10T02:57:13.523Z,2.30
2023-04-10T02:59:41.355Z,2.40
2023-04-10T03:02:10.645Z,2.30
2023-04-10T03:04:38.622Z,2.43
2023-04-10T03:07:06.644Z,2.70
2023-04-10T03:09:36.482Z,2.23
2023-04-10T03:12:04.443Z,2.63
2023-04-10T03:14:32.243Z,2.40
2023-04-10T03:17:00.083Z,2.07
2023-04-10T03:19:28.110Z,2.40
2023-04-10T03:21:55.979Z,2.30
2023-04-10T03:24:23.743Z,2.30
2023-04-10T03:26:53.059Z,2.07
2023-04-10T03:29:21.558Z,2.53
2023-04-10T03:31:49.365Z,2.20
2023-04-10T03:34:17.378Z,2.20
2023-04-10T03:36:45.147Z,2.27
2023-04-10T03:39:12.920Z,2.33
2023-04-10T03:41:40.758Z,2.10
2023-04-10T03:44:09.882Z,2.40
2023-04-10T03:46:37.650Z,2.27
2023-04-10T03:49:05.510Z,2.30
2023-04-10T03:51:35.401Z,2.50
2023-04-10T03:54:03.703Z,2.27
2023-04-10T03:56:31.433Z,2.10
2023-04-10T03:59:00.418Z,2.43
2023-04-10T04:01:29.594Z,2.20
2023-04-10T04:03:57.682Z,2.50
2023-04-10T04:06:25.787Z,2.40
2023-04-10T04:08:53.478Z,2.00
2023-04-10T04:11:21.208Z,2.40
2023-04-10T04:13:50.208Z,2.20
2023-04-10T04:16:18.119Z,2.40
2023-04-10T04:18:47.354Z,2.47
2023-04-10T04:21:15.073Z,2.70
2023-04-10T04:23:42.805Z,2.87
2023-04-10T04:26:10.628Z,2.77
2023-04-10T04:28:38.716Z,2.73
2023-04-10T04:31:07.069Z,2.80
2023-04-10T04:33:35.394Z,2.37
2023-04-10T04:36:05.017Z,2.43
2023-04-10T04:38:33.758Z,2.57
2023-04-10T04:41:02.303Z,2.70
2023-04-10T04:43:34.079Z,2.63
2023-04-10T04:46:02.000Z,2.70
2023-04-10T04:48:30.059Z,2.40
2023-04-10T04:50:57.864Z,2.37
2023-04-10T04:53:27.199Z,2.50
2023-04-10T04:55:54.886Z,2.60
2023-04-10T04:58:24.583Z,2.63
2023-04-10T05:00:52.878Z,2.67
2023-04-10T05:03:21.213Z,2.30
2023-04-10T05:05:49.223Z,2.63
2023-04-10T05:08:16.936Z,2.80
2023-04-10T05:10:46.228Z,2.80
2023-04-10T05:13:15.661Z,2.80
2023-04-10T05:15:43.753Z,2.80
2023-04-10T05:18:11.640Z,2.93
2023-04-10T05:20:41.038Z,3.00
2023-04-10T05:23:08.841Z,3.23
2023-04-10T05:25:36.667Z,3.30
2023-04-10T05:28:05.777Z,3.43
2023-04-10T05:30:33.490Z,3.03
2023-04-10T05:33:02.332Z,3.13
2023-04-10T05:35:30.433Z,3.33
2023-04-10T05:37:59.018Z,3.67
2023-04-10T05:40:27.141Z,4.27
2023-04-10T05:42:54.932Z,4.37
2023-04-10T05:45:24.027Z,4.70
2023-04-10T05:47:51.907Z,4.47
2023-04-10T05:50:20.676Z,4.07
2023-04-10T05:52:49.327Z,4.17
2023-04-10T05:55:17.258Z,3.63
2023-04-10T05:57:47.402Z,3.50
2023-04-10T06:00:17.898Z,3.67
2023-04-10T06:02:47.354Z,3.30
2023-04-10T06:05:15.598Z,3.57
2023-04-10T06:07:43.474Z,3.57
2023-04-10T06:10:11.588Z,3.43
2023-04-10T06:12:39.418Z,3.00
2023-04-10T06:15:08.314Z,3.00
2023-04-10T06:17:36.306Z,2.77
2023-04-10T06:20:06.367Z,2.70
2023-04-10T06:22:34.120Z,2.87
2023-04-10T06:25:01.827Z,2.90
2023-04-10T06:27:31.745Z,3.27
2023-04-10T06:29:59.584Z,2.87
2023-04-10T06:32:27.477Z,2.80
2023-04-10T06:34:55.883Z,2.70
2023-04-10T06:37:32.349Z,2.60
2023-04-10T06:40:05.395Z,3.07
2023-04-10T06:42:33.155Z,2.90
2023-04-10T06:45:01.472Z,3.60
2023-04-10T06:47:31.605Z,2.67
2023-04-10T06:49:59.337Z,2.97
2023-04-10T06:52:27.231Z,2.67
2023-04-10T06:54:56.685Z,2.40
2023-04-10T06:57:24.554Z,2.50
2023-04-10T06:59:52.315Z,2.33
2023-04-10T07:02:20.190Z,2.20
2023-04-10T07:04:48.152Z,2.13
2023-04-10T07:07:16.024Z,2.00
2023-04-10T07:09:43.869Z,2.43
2023-04-10T07:12:13.023Z,2.17
2023-04-10T07:14:41.304Z,2.40
2023-04-10T07:17:09.504Z,1.90
2023-04-10T07:19:38.117Z,1.90
2023-04-10T07:22:05.987Z,1.60
2023-04-10T07:24:33.746Z,1.70
2023-04-10T07:27:02.003Z,1.50
2023-04-10T07:29:31.732Z,1.60
2023-04-10T07:31:59.674Z,1.70
2023-04-10T07:34:27.555Z,2.10
2023-04-10T07:36:55.800Z,1.73
2023-04-10T07:39:23.894Z,1.90
2023-04-10T07:41:51.698Z,2.00
2023-04-10T07:44:19.970Z,1.90
2023-04-10T07:46:49.267Z,1.57
2023-04-10T07:49:17.104Z,1.70
2023-04-10T07:51:45.574Z,1.87
2023-04-10T07:54:13.386Z,1.80
2023-04-10T07:56:41.189Z,1.50
2023-04-10T07:59:09.317Z,1.63
2023-04-10T08:01:37.066Z,1.60
2023-04-10T08:04:06.636Z,1.87
2023-04-10T08:06:34.490Z,1.80
2023-04-10T08:09:02.661Z,1.70
2023-04-10T08:11:31.503Z,1.87
2023-04-10T08:14:01.830Z,1.80
2023-04-10T08:16:31.148Z,1.97
2023-04-10T08:18:59.513Z,2.10
2023-04-10T08:21:29.862Z,2.17
2023-04-10T08:23:58.997Z,2.03
2023-04-10T08:26:27.732Z,2.00
2023-04-10T08:28:58.083Z,2.13
2023-04-10T08:31:29.958Z,2.13
2023-04-10T08:33:58.999Z,2.03
2023-04-10T08:36:28.853Z,1.90
2023-04-10T08:38:56.715Z,1.90
2023-04-10T08:41:24.486Z,2.20
2023-04-10T08:43:52.296Z,1.90
2023-04-10T08:46:20.288Z,1.90
2023-04-10T08:48:49.559Z,2.10
2023-04-10T08:51:26.239Z,2.20
2023-04-10T08:54:01.174Z,1.90
2023-04-10T08:56:29.030Z,2.00
2023-04-10T08:58:56.854Z,2.27
2023-04-10T09:01:24.974Z,2.20
2023-04-10T09:03:53.351Z,1.80
2023-04-10T09:06:21.326Z,2.23
2023-04-10T09:08:49.080Z,1.70
2023-04-10T09:11:18.296Z,1.70
2023-04-10T09:13:46.477Z,1.90
2023-04-10T09:16:15.897Z,1.93
2023-04-10T09:18:45.901Z,1.80
2023-04-10T09:21:15.720Z,2.10
2023-04-10T09:23:44.383Z,1.93
2023-04-10T09:26:30.101Z,1.93
2023-04-10T09:28:59.304Z,2.00
2023-04-10T09:31:32.334Z,1.80
2023-04-10T09:34:11.632Z,2.00
2023-04-10T09:36:41.429Z,2.07
2023-04-10T09:39:12.157Z,2.17
2023-04-10T09:41:52.354Z,1.90
2023-04-10T09:44:29.344Z,1.90
2023-04-10T09:46:57.229Z,1.97
2023-04-10T09:49:25.217Z,2.10
2023-04-10T09:51:53.154Z,1.97
2023-04-10T09:54:36.401Z,2.30
2023-04-10T09:57:05.643Z,2.10
2023-04-10T09:59:33.731Z,1.73
2023-04-10T10:02:01.577Z,2.00
2023-04-10T10:04:30.115Z,2.10
2023-04-10T10:06:58.141Z,2.03
2023-04-10T10:09:29.325Z,2.10
2023-04-10T10:11:57.467Z,2.17
2023-04-10T10:14:27.728Z,2.03
2023-04-10T10:16:57.938Z,2.00
2023-04-10T10:19:39.530Z,1.83
2023-04-10T10:22:09.079Z,2.23
2023-04-10T10:24:37.953Z,2.20
2023-04-10T10:27:06.362Z,2.00
2023-04-10T10:29:36.257Z,2.23
2023-04-10T10:32:05.628Z,1.90
2023-04-10T10:34:33.644Z,2.30
2023-04-10T10:37:01.808Z,2.10
2023-04-10T10:39:35.278Z,2.13
2023-04-10T10:42:10.380Z,2.07
2023-04-10T10:44:44.320Z,1.70
2023-04-10T10:47:21.926Z,1.67
2023-04-10T10:49:56.845Z,1.87
2023-04-10T10:52:46.323Z,1.90
2023-04-10T10:55:34.998Z,1.67
2023-04-10T10:58:05.166Z,1.93
2023-04-10T11:01:10.633Z,1.63
2023-04-10T11:03:39.138Z,1.60
2023-04-10T11:06:08.600Z,3.00
2023-04-10T11:08:45.790Z,2.90
2023-04-10T11:11:22.082Z,2.50
2023-04-10T11:14:18.073Z,3.60
2023-04-10T11:16:48.701Z,2.90
2023-04-10T11:19:22.644Z,2.40
2023-04-10T11:22:08.770Z,2.23
2023-04-10T11:25:00.050Z,2.33
2023-04-10T11:27:48.503Z,1.90
2023-04-10T11:30:36.349Z,1.80
2023-04-10T11:33:06.635Z,1.60
2023-04-10T11:35:35.800Z,1.90
2023-04-10T11:38:13.964Z,1.70
2023-04-10T11:41:01.636Z,1.77
2023-04-10T11:43:29.590Z,1.87
2023-04-10T11:46:05.299Z,1.80
2023-04-10T11:48:36.798Z,1.60
2023-04-10T11:51:10.098Z,1.90
2023-04-10T11:53:38.431Z,1.60
2023-04-10T11:56:07.717Z,1.80
2023-04-10T11:58:37.052Z,1.60
2023-04-10T12:01:10.171Z,1.67
2023-04-10T12:03:40.798Z,1.70
2023-04-10T12:06:10.883Z,1.80
2023-04-10T12:08:39.952Z,1.70
2023-04-10T12:11:08.618Z,1.87
2023-04-10T12:13:36.349Z,1.70
2023-04-10T12:16:05.814Z,1.70
2023-04-10T12:18:33.715Z,1.60
2023-04-10T12:21:03.034Z,1.60
2023-04-10T12:23:32.761Z,1.60
2023-04-10T12:26:12.448Z,1.90
2023-04-10T12:28:42.104Z,1.90
2023-04-10T12:31:10.281Z,1.50
2023-04-10T12:33:38.510Z,1.60
2023-04-10T12:36:08.542Z,1.63
2023-04-10T12:38:40.435Z,1.87
2023-04-10T12:41:09.650Z,1.63
2023-04-10T12:43:41.495Z,1.63
2023-04-10T12:46:10.753Z,1.63
2023-04-10T12:48:38.576Z,1.90
2023-04-10T12:51:08.538Z,1.80
2023-04-10T12:53:44.244Z,1.50
2023-04-10T12:56:13.357Z,1.80
2023-04-10T12:58:42.674Z,1.80
2023-04-10T13:01:11.128Z,1.73
2023-04-10T13:03:39.493Z,1.63
2023-04-10T13:06:09.446Z,1.70
2023-04-10T13:08:37.205Z,1.90
2023-04-10T13:11:05.573Z,1.80
2023-04-10T13:13:33.563Z,1.70
2023-04-10T13:16:01.513Z,1.80
2023-04-10T13:18:29.386Z,1.77
2023-04-10T13:20:57.131Z,1.50
2023-04-10T13:23:26.276Z,1.53
2023-04-10T13:25:54.491Z,1.80
2023-04-10T13:28:22.224Z,1.53
2023-04-10T13:30:49.896Z,1.50
2023-04-10T13:33:17.652Z,1.40
2023-04-10T13:35:45.644Z,1.63
2023-04-10T13:38:14.672Z,1.60
2023-04-10T13:40:44.336Z,1.83
2023-04-10T13:43:13.614Z,1.60
2023-04-10T13:45:42.469Z,1.77
2023-04-10T13:48:10.175Z,1.73
2023-04-10T13:50:37.969Z,1.77
2023-04-10T13:53:07.677Z,1.70
2023-04-10T13:55:38.969Z,1.60
2023-04-10T13:58:10.935Z,2.10
2023-04-10T14:00:39.297Z,1.87
2023-04-10T14:03:10.120Z,1.63
2023-04-10T14:05:38.280Z,1.83
2023-04-10T14:08:06.298Z,1.90
2023-04-10T14:10:34.447Z,1.80
2023-04-10T14:13:02.264Z,1.93
2023-04-10T14:15:32.368Z,1.77
2023-04-10T14:18:00.449Z,1.80
2023-04-10T14:20:28.300Z,1.90
2023-04-10T14:22:55.997Z,1.70
2023-04-10T14:25:23.728Z,1.77
2023-04-10T14:27:51.558Z,1.70
2023-04-10T14:30:19.427Z,1.87
2023-04-10T14:32:48.918Z,1.50
2023-04-10T14:37:51.906Z,1.60
2023-04-10T14:40:19.762Z,1.70
2023-04-10T14:42:47.446Z,1.70
2023-04-10T14:45:15.365Z,1.77
2023-04-10T14:47:43.416Z,1.50
2023-04-10T14:50:13.030Z,1.83
2023-04-10T14:52:40.727Z,1.87
2023-04-10T14:55:08.856Z,1.90
2023-04-10T14:57:36.672Z,1.77
2023-04-10T15:00:04.724Z,1.70
2023-04-10T15:02:32.481Z,1.70
2023-04-10T15:05:00.371Z,1.60
2023-04-10T15:07:29.426Z,1.77
2023-04-10T15:09:58.881Z,1.80
2023-04-10T15:12:26.968Z,1.70
2023-04-10T15:14:54.853Z,1.60
2023-04-10T15:17:24.314Z,1.93
2023-04-10T15:19:52.222Z,1.80
2023-04-10T15:22:20.004Z,1.70
2023-04-10T15:24:50.781Z,1.63
2023-04-10T15:27:20.118Z,2.00
2023-04-10T15:29:48.147Z,1.63
2023-04-10T15:32:16.092Z,1.60
2023-04-10T15:34:44.791Z,1.87
2023-04-10T15:37:12.635Z,1.90
2023-04-10T15:39:40.727Z,1.70
2023-04-10T15:42:09.957Z,1.57
2023-04-10T15:44:37.736Z,1.77
2023-04-10T15:47:05.597Z,1.80
2023-04-10T15:49:38.269Z,1.70
2023-04-10T15:52:06.603Z,1.90
2023-04-10T15:54:34.613Z,1.70
2023-04-10T15:57:02.560Z,1.57
2023-04-10T15:59:31.896Z,1.93
2023-04-10T16:01:59.732Z,2.10
2023-04-10T16:04:27.684Z,2.83
2023-04-10T16:06:56.512Z,3.30
2023-04-10T16:09:26.400Z,3.00
2023-04-10T16:11:54.844Z,2.63
2023-04-10T16:14:22.905Z,2.87
2023-04-10T16:16:52.095Z,2.43
2023-04-10T16:19:19.858Z,2.30
2023-04-10T16:21:47.571Z,2.00
2023-04-10T16:24:15.511Z,1.93
2023-04-10T16:26:43.242Z,2.23
2023-04-10T16:29:11.040Z,2.07
2023-04-10T16:31:38.898Z,3.60
2023-04-10T16:34:08.055Z,3.00
2023-04-10T16:36:35.992Z,2.53
2023-04-10T16:39:05.775Z,2.47
2023-04-10T16:41:33.834Z,2.10
2023-04-10T16:44:01.710Z,1.73
2023-04-10T16:46:31.528Z,2.20
2023-04-10T16:48:59.418Z,1.70
2023-04-10T16:51:28.596Z,1.53
2023-04-10T16:53:56.480Z,1.73
2023-04-10T16:56:24.382Z,1.63
2023-04-10T16:58:52.123Z,1.73
2023-04-10T17:01:21.739Z,1.90
2023-04-10T17:03:50.092Z,1.87
2023-04-10T17:06:18.109Z,1.90
2023-04-10T17:08:47.221Z,1.77
2023-04-10T17:11:15.900Z,2.00
2023-04-10T17:13:43.871Z,1.67
2023-04-10T17:16:11.796Z,1.90
2023-04-10T17:18:39.551Z,1.60
2023-04-10T17:21:11.673Z,1.77
2023-04-10T17:23:40.088Z,1.70
2023-04-10T17:26:14.038Z,1.77
2023-04-10T17:28:44.887Z,1.63
2023-04-10T17:31:13.209Z,1.70
2023-04-10T17:33:42.274Z,1.67
2023-04-10T17:36:12.238Z,1.90
2023-04-10T17:38:40.505Z,2.20
2023-04-10T17:41:10.554Z,1.90
2023-04-10T17:43:38.708Z,1.80
2023-04-10T17:46:07.039Z,1.90
2023-04-10T17:48:35.347Z,2.07
2023-04-10T17:51:06.253Z,1.80
2023-04-10T17:53:34.119Z,2.03
2023-04-10T17:56:02.060Z,1.97
2023-04-10T17:58:31.575Z,2.30
2023-04-10T18:00:59.453Z,2.10
2023-04-10T18:03:27.249Z,2.40
2023-04-10T18:05:55.123Z,2.10
2023-04-10T18:08:22.970Z,2.60
2023-04-10T18:10:50.705Z,3.35
2023-04-10T18:13:18.414Z,2.93
2023-04-10T18:15:47.508Z,2.50
2023-04-10T18:18:15.301Z,3.90
2023-04-10T18:20:43.016Z,3.73
2023-04-10T18:23:10.732Z,3.50
2023-04-10T18:25:38.417Z,3.03
2023-04-10T18:28:14.237Z,2.90
2023-04-10T18:30:43.206Z,2.90
2023-04-10T18:33:12.786Z,3.00
2023-04-10T18:35:40.678Z,3.10
2023-04-10T18:38:08.478Z,3.20
2023-04-10T18:40:36.889Z,3.10
2023-04-10T18:43:04.787Z,3.40
2023-04-10T18:45:34.368Z,3.47
2023-04-10T18:48:02.436Z,3.10
2023-04-10T18:50:31.787Z,3.40
2023-04-10T18:52:59.562Z,3.33
2023-04-10T18:55:27.322Z,3.83
2023-04-10T18:57:55.156Z,3.90
2023-04-10T19:00:23.190Z,3.97
2023-04-10T19:02:51.143Z,4.33
2023-04-10T19:05:19.051Z,4.07
2023-04-10T19:08:00.668Z,3.80
2023-04-10T19:10:31.281Z,4.13
2023-04-10T19:12:59.133Z,3.53
2023-04-10T19:15:26.960Z,3.60
2023-04-10T19:17:54.933Z,3.97
2023-04-10T19:20:50.486Z,3.80
2023-04-10T19:23:12.952Z,4.40
2023-04-10T19:25:40.922Z,4.27
2023-04-10T19:28:08.737Z,4.20
2023-04-10T19:30:36.626Z,3.83
2023-04-10T19:33:04.578Z,3.87
2023-04-10T19:35:32.428Z,3.60
2023-04-10T19:38:00.271Z,4.07
2023-04-10T19:40:29.771Z,3.90
2023-04-10T19:42:59.357Z,3.77
2023-04-10T19:45:29.205Z,4.03
2023-04-10T19:47:59.582Z,3.70
2023-04-10T19:50:29.345Z,3.70
2023-04-10T19:52:57.133Z,3.57
2023-04-10T19:55:25.067Z,3.40
2023-04-10T19:57:54.648Z,3.30
2023-04-10T20:00:22.412Z,3.40
2023-04-10T20:02:50.455Z,3.03
2023-04-10T20:05:18.710Z,3.30
2023-04-10T20:07:46.728Z,3.60
2023-04-10T20:10:14.468Z,3.50
2023-04-10T20:12:42.235Z,3.57
2023-04-10T20:15:12.565Z,3.40
2023-04-10T20:17:40.368Z,3.23
2023-04-10T20:20:09.273Z,3.33
2023-04-10T20:22:37.106Z,3.50
2023-04-10T20:25:05.780Z,3.83
2023-04-10T20:27:33.582Z,3.83
2023-04-10T20:30:01.625Z,3.87
2023-04-10T20:32:33.134Z,3.90
2023-04-10T20:35:00.968Z,3.70
2023-04-10T20:37:28.683Z,3.90
2023-04-10T20:39:56.502Z,4.00
2023-04-10T20:42:24.271Z,4.40
2023-04-10T20:44:52.136Z,3.63
2023-04-10T20:47:19.885Z,3.93
2023-04-10T20:49:49.076Z,4.17
2023-04-10T20:52:16.818Z,3.90
2023-04-10T20:54:44.590Z,4.00
2023-04-10T20:57:12.402Z,3.63
2023-04-10T20:59:40.145Z,3.57
2023-04-10T21:02:08.057Z,3.83
2023-04-10T21:04:35.895Z,3.40
2023-04-10T21:07:05.021Z,3.90
2023-04-10T21:09:32.892Z,3.80
2023-04-10T21:12:00.659Z,3.90
2023-04-10T21:14:28.335Z,3.70
2023-04-10T21:16:56.431Z,3.67
2023-04-10T21:19:24.292Z,3.53
2023-04-10T21:21:52.046Z,3.90
2023-04-10T21:24:21.137Z,3.30
2023-04-10T21:26:49.028Z,3.33
2023-04-10T21:29:16.812Z,3.87
2023-04-10T21:31:44.719Z,3.60
2023-04-10T21:34:12.538Z,3.70
2023-04-10T21:36:40.323Z,3.90
2023-04-10T21:39:09.292Z,4.00
2023-04-10T21:41:38.712Z,3.93
2023-04-10T21:44:06.828Z,3.80
2023-04-10T21:46:36.073Z,4.13
2023-04-10T21:49:04.148Z,3.60
2023-04-10T21:51:32.712Z,4.13
2023-04-10T21:54:00.552Z,4.00
2023-04-10T21:56:28.259Z,4.20
2023-04-10T21:58:57.363Z,3.90
2023-04-10T22:01:25.253Z,4.23
2023-04-10T22:03:54.059Z,4.37
2023-04-10T22:06:22.120Z,4.60
2023-04-10T22:08:49.868Z,4.30
2023-04-10T22:11:17.677Z,4.70
2023-04-10T22:13:45.484Z,4.57
2023-04-10T22:16:14.564Z,4.47
2023-04-10T22:18:42.313Z,4.40
2023-04-10T22:21:10.049Z,4.77
2023-04-10T22:23:37.764Z,4.70
2023-04-10T22:26:05.722Z,5.17
2023-04-10T22:28:33.517Z,5.43
2023-04-10T22:31:01.397Z,5.27
2023-04-10T22:33:32.867Z,5.07
2023-04-10T22:36:00.722Z,5.23
2023-04-10T22:38:28.487Z,4.80
2023-04-10T22:40:56.289Z,4.73
2023-04-10T22:43:26.457Z,5.13
2023-04-10T22:45:55.320Z,4.93
2023-04-10T22:48:23.201Z,5.10
2023-04-10T22:50:52.407Z,5.17
2023-04-10T22:53:20.064Z,5.13
2023-04-10T22:55:47.783Z,5.43
2023-04-10T22:58:15.597Z,4.90
2023-04-10T23:00:43.331Z,5.07
2023-04-10T23:03:11.206Z,4.93
2023-04-10T23:05:39.105Z,4.37
2023-04-10T23:08:08.266Z,4.70
2023-04-10T23:10:36.013Z,4.50
2023-04-10T23:13:03.785Z,4.40
2023-04-10T23:15:31.580Z,4.43
2023-04-10T23:17:59.408Z,4.40
2023-04-10T23:20:29.713Z,4.30
2023-04-10T23:22:57.575Z,4.03
2023-04-10T23:25:26.692Z,4.00
2023-04-10T23:27:54.557Z,4.20
2023-04-10T23:30:22.392Z,4.20
2023-04-10T23:32:50.269Z,4.47
2023-04-10T23:35:18.430Z,4.20
2023-04-10T23:37:46.256Z,4.40
2023-04-10T23:40:14.592Z,4.47
2023-04-10T23:42:43.814Z,4.37
2023-04-10T23:45:12.379Z,4.33
2023-04-10T23:47:40.226Z,4.33
2023-04-10T23:50:09.792Z,3.63
2023-04-10T23:52:37.623Z,3.97
2023-04-10T23:55:06.348Z,3.90
2023-04-10T23:57:34.217Z,4.00
